Williamston, North Carolina
Current Conditions -  °F | °C
As of 3:55 PM on Tuesday 21 Oct 2014 (Local Time) from KOCW Reporting Station
Scattered Clouds Scattered Clouds  
Wind Chill: 74°   Ceiling: Unl
Heat Index: 74°   Visibility: 10mi
Dew Point: 50°   Wind: 10mph
Humidity: 43%   Direction: 230°SW
Pressure: 29.82"   Gusts: NA
Location:  35.85°N, 77.06°W
Report Text: KOCW 211955Z AUTO 23009KT 10SM SCT055 SCT075 24/10 A2982 RMK AO2 T02350101
Loading
Personal Weather Stations






























Interactive Weather Map
Tropical Storm Tracking
New forecast layout! Learn more

10-Day Weather Forecast

Advertisements
Track Severe Weather on mobile